sensor_id;sensor_type;location;lat;lon;timestamp;pressure;altitude;pressure_sealevel;temperature;humidity
11523;BME280;40093;43.224;27.910;2023-02-01T00:00:31;100351.84;;;3.38;100.00
11523;BME280;40093;43.224;27.910;2023-02-01T00:03:00;100372.22;;;3.52;100.00
11523;BME280;40093;43.224;27.910;2023-02-01T00:05:27;100372.66;;;3.54;100.00
11523;BME280;40093;43.224;27.910;2023-02-01T00:07:55;100373.34;;;3.51;100.00
11523;BME280;40093;43.224;27.910;2023-02-01T00:10:22;100379.19;;;3.41;100.00
11523;BME280;40093;43.224;27.910;2023-02-01T00:12:49;100377.44;;;3.37;100.00
11523;BME280;40093;43.224;27.910;2023-02-01T00:15:17;100306.16;;;2.82;100.00
11523;BME280;40093;43.224;27.910;2023-02-01T00:17:44;100377.56;;;3.40;100.00
11523;BME280;40093;43.224;27.910;2023-02-01T00:20:12;100363.47;;;3.47;100.00
11523;BME280;40093;43.224;27.910;2023-02-01T00:22:39;100351.44;;;3.27;100.00
11523;BME280;40093;43.224;27.910;2023-02-01T00:25:08;100374.00;;;3.48;100.00
11523;BME280;40093;43.224;27.910;2023-02-01T00:27:35;100377.84;;;3.47;100.00
11523;BME280;40093;43.224;27.910;2023-02-01T00:30:03;100381.38;;;3.48;100.00
11523;BME280;40093;43.224;27.910;2023-02-01T00:32:30;100369.34;;;3.49;100.00
11523;BME280;40093;43.224;27.910;2023-02-01T00:34:57;100378.38;;;3.41;100.00
11523;BME280;40093;43.224;27.910;2023-02-01T00:37:24;100382.75;;;3.33;100.00
11523;BME280;40093;43.224;27.910;2023-02-01T00:39:51;100358.06;;;3.38;100.00
11523;BME280;40093;43.224;27.910;2023-02-01T00:42:22;100361.06;;;3.45;100.00
11523;BME280;40093;43.224;27.910;2023-02-01T00:44:49;100366.19;;;3.47;100.00
11523;BME280;40093;43.224;27.910;2023-02-01T00:47:16;100350.72;;;3.39;99.42
11523;BME280;40093;43.224;27.910;2023-02-01T00:49:45;100367.34;;;3.37;99.34
11523;BME280;40093;43.224;27.910;2023-02-01T00:52:12;100373.13;;;3.36;99.68
11523;BME280;40093;43.224;27.910;2023-02-01T00:54:39;100367.94;;;3.43;99.29
11523;BME280;40093;43.224;27.910;2023-02-01T00:57:06;100361.59;;;3.39;99.81
11523;BME280;40093;43.224;27.910;2023-02-01T00:59:34;100355.03;;;3.40;99.34
11523;BME280;40093;43.224;27.910;2023-02-01T01:02:01;100375.06;;;3.35;99.13
11523;BME280;40093;43.224;27.910;2023-02-01T01:04:28;100358.19;;;3.42;98.25
11523;BME280;40093;43.224;27.910;2023-02-01T01:06:55;100368.81;;;3.35;98.72
11523;BME280;40093;43.224;27.910;2023-02-01T01:09:22;100379.28;;;3.45;98.48
11523;BME280;40093;43.224;27.910;2023-02-01T01:11:49;100359.53;;;3.36;97.76
11523;BME280;40093;43.224;27.910;2023-02-01T01:14:16;100364.84;;;3.53;96.80
11523;BME280;40093;43.224;27.910;2023-02-01T01:16:45;100378.66;;;3.48;97.78
11523;BME280;40093;43.224;27.910;2023-02-01T01:19:11;100381.16;;;3.53;97.50
11523;BME280;40093;43.224;27.910;2023-02-01T01:21:38;100384.34;;;3.55;97.62
11523;BME280;40093;43.224;27.910;2023-02-01T01:24:05;100390.44;;;3.52;98.33
11523;BME280;40093;43.224;27.910;2023-02-01T01:26:32;100386.59;;;3.53;99.51
11523;BME280;40093;43.224;27.910;2023-02-01T01:28:59;100386.88;;;3.60;99.35
11523;BME280;40093;43.224;27.910;2023-02-01T01:31:27;100378.91;;;3.55;98.86
11523;BME280;40093;43.224;27.910;2023-02-01T01:33:57;100375.19;;;3.39;99.66
11523;BME280;40093;43.224;27.910;2023-02-01T01:36:25;100374.34;;;3.47;99.56
11523;BME280;40093;43.224;27.910;2023-02-01T01:38:52;100370.66;;;3.43;98.95
11523;BME280;40093;43.224;27.910;2023-02-01T01:41:20;100371.94;;;3.45;98.83
11523;BME280;40093;43.224;27.910;2023-02-01T01:43:50;100341.00;;;3.29;97.94
11523;BME280;40093;43.224;27.910;2023-02-01T01:46:19;100371.41;;;3.52;96.64
11523;BME280;40093;43.224;27.910;2023-02-01T01:48:49;100376.44;;;3.62;96.13
11523;BME280;40093;43.224;27.910;2023-02-01T01:51:20;100381.66;;;3.67;96.00
11523;BME280;40093;43.224;27.910;2023-02-01T01:53:55;100388.78;;;3.80;96.74
11523;BME280;40093;43.224;27.910;2023-02-01T01:56:25;100387.31;;;3.82;95.44
11523;BME280;40093;43.224;27.910;2023-02-01T01:58:54;100398.00;;;3.87;94.87
11523;BME280;40093;43.224;27.910;2023-02-01T02:01:22;100397.19;;;3.87;94.17
11523;BME280;40093;43.224;27.910;2023-02-01T02:03:50;100397.53;;;3.85;94.14
11523;BME280;40093;43.224;27.910;2023-02-01T02:06:30;100404.31;;;3.79;94.31
11523;BME280;40093;43.224;27.910;2023-02-01T02:08:57;100404.22;;;3.88;93.68
11523;BME280;40093;43.224;27.910;2023-02-01T02:11:24;100411.78;;;3.82;93.41
11523;BME280;40093;43.224;27.910;2023-02-01T02:13:54;100406.66;;;3.69;95.05
11523;BME280;40093;43.224;27.910;2023-02-01T02:16:31;100398.72;;;3.76;95.42
11523;BME280;40093;43.224;27.910;2023-02-01T02:19:19;100403.00;;;3.85;95.56
11523;BME280;40093;43.224;27.910;2023-02-01T02:22:09;100402.78;;;3.90;95.53
11523;BME280;40093;43.224;27.910;2023-02-01T02:25:02;100403.94;;;3.69;97.01
11523;BME280;40093;43.224;27.910;2023-02-01T02:27:42;100410.56;;;3.80;97.03
11523;BME280;40093;43.224;27.910;2023-02-01T02:30:39;100411.03;;;3.82;97.35
11523;BME280;40093;43.224;27.910;2023-02-01T02:33:43;100405.47;;;3.58;98.85
11523;BME280;40093;43.224;27.910;2023-02-01T02:36:18;100417.94;;;3.59;98.74
11523;BME280;40093;43.224;27.910;2023-02-01T02:38:52;100411.94;;;3.65;98.99
11523;BME280;40093;43.224;27.910;2023-02-01T02:41:27;100365.38;;;3.46;99.49
11523;BME280;40093;43.224;27.910;2023-02-01T02:44:21;100394.19;;;3.68;99.08
11523;BME280;40093;43.224;27.910;2023-02-01T02:47:13;100403.19;;;3.60;99.08
11523;BME280;40093;43.224;27.910;2023-02-01T02:49:58;100403.78;;;3.45;100.00
11523;BME280;40093;43.224;27.910;2023-02-01T02:52:50;100400.59;;;3.43;100.00
11523;BME280;40093;43.224;27.910;2023-02-01T02:55:36;100402.00;;;3.49;100.00
11523;BME280;40093;43.224;27.910;2023-02-01T02:58:07;100402.91;;;3.53;100.00
11523;BME280;40093;43.224;27.910;2023-02-01T03:00:56;100403.50;;;3.58;100.00
11523;BME280;40093;43.224;27.910;2023-02-01T03:03:41;100380.63;;;3.39;100.00
11523;BME280;40093;43.224;27.910;2023-02-01T03:06:27;100406.00;;;3.51;100.00
11523;BME280;40093;43.224;27.910;2023-02-01T03:08:57;100412.22;;;3.52;100.00
11523;BME280;40093;43.224;27.910;2023-02-01T03:11:25;100407.69;;;3.56;100.00
11523;BME280;40093;43.224;27.910;2023-02-01T03:14:15;100373.38;;;3.43;100.00
11523;BME280;40093;43.224;27.910;2023-02-01T03:16:47;100406.38;;;3.62;100.00
11523;BME280;40093;43.224;27.910;2023-02-01T03:19:21;100412.09;;;3.69;100.00
11523;BME280;40093;43.224;27.910;2023-02-01T03:21:54;100414.06;;;3.60;100.00
11523;BME280;40093;43.224;27.910;2023-02-01T03:24:25;100420.44;;;3.64;100.00
11523;BME280;40093;43.224;27.910;2023-02-01T03:27:03;100420.84;;;3.74;100.00
11523;BME280;40093;43.224;27.910;2023-02-01T03:29:37;100426.03;;;3.67;100.00
11523;BME280;40093;43.224;27.910;2023-02-01T03:32:05;100417.72;;;3.64;100.00
11523;BME280;40093;43.224;27.910;2023-02-01T03:34:32;100429.88;;;3.66;100.00
11523;BME280;40093;43.224;27.910;2023-02-01T03:37:02;100430.19;;;3.65;100.00
11523;BME280;40093;43.224;27.910;2023-02-01T03:39:34;100427.88;;;3.55;100.00
11523;BME280;40093;43.224;27.910;2023-02-01T03:42:05;100433.88;;;3.69;100.00
11523;BME280;40093;43.224;27.910;2023-02-01T03:44:36;100421.38;;;3.68;100.00
11523;BME280;40093;43.224;27.910;2023-02-01T03:47:08;100434.03;;;3.64;100.00
11523;BME280;40093;43.224;27.910;2023-02-01T03:49:38;100423.91;;;3.73;100.00
11523;BME280;40093;43.224;27.910;2023-02-01T03:52:11;100431.75;;;3.74;100.00
11523;BME280;40093;43.224;27.910;2023-02-01T03:54:40;100426.66;;;3.44;100.00
11523;BME280;40093;43.224;27.910;2023-02-01T03:57:12;100426.84;;;3.68;100.00
11523;BME280;40093;43.224;27.910;2023-02-01T03:59:41;100441.16;;;3.56;100.00
11523;BME280;40093;43.224;27.910;2023-02-01T04:02:09;100445.00;;;3.55;100.00
11523;BME280;40093;43.224;27.910;2023-02-01T04:04:35;100453.94;;;3.56;100.00
11523;BME280;40093;43.224;27.910;2023-02-01T04:07:03;100470.47;;;3.51;100.00
11523;BME280;40093;43.224;27.910;2023-02-01T04:09:33;100456.41;;;3.49;100.00
11523;BME280;40093;43.224;27.910;2023-02-01T04:12:01;100469.03;;;3.53;100.00
11523;BME280;40093;43.224;27.910;2023-02-01T04:14:28;100455.75;;;3.52;100.00
11523;BME280;40093;43.224;27.910;2023-02-01T04:16:55;100457.19;;;3.49;100.00
11523;BME280;40093;43.224;27.910;2023-02-01T04:19:22;100453.03;;;3.52;100.00
11523;BME280;40093;43.224;27.910;2023-02-01T04:21:49;100455.59;;;3.48;100.00
11523;BME280;40093;43.224;27.910;2023-02-01T04:24:16;100434.19;;;3.18;100.00
11523;BME280;40093;43.224;27.910;2023-02-01T04:26:45;100449.78;;;3.29;100.00
11523;BME280;40093;43.224;27.910;2023-02-01T04:29:12;100458.97;;;3.45;100.00
11523;BME280;40093;43.224;27.910;2023-02-01T04:31:39;100462.16;;;3.47;100.00
11523;BME280;40093;43.224;27.910;2023-02-01T04:34:06;100465.41;;;3.41;100.00
11523;BME280;40093;43.224;27.910;2023-02-01T04:36:33;100468.66;;;3.34;100.00
11523;BME280;40093;43.224;27.910;2023-02-01T04:39:00;100465.38;;;3.20;100.00
11523;BME280;40093;43.224;27.910;2023-02-01T04:41:27;100472.34;;;3.30;100.00
11523;BME280;40093;43.224;27.910;2023-02-01T04:43:55;100469.16;;;3.28;100.00
11523;BME280;40093;43.224;27.910;2023-02-01T04:46:23;100479.75;;;3.21;100.00
11523;BME280;40093;43.224;27.910;2023-02-01T04:48:50;100461.44;;;3.01;100.00
11523;BME280;40093;43.224;27.910;2023-02-01T04:51:18;100477.13;;;3.04;100.00
11523;BME280;40093;43.224;27.910;2023-02-01T04:53:45;100477.13;;;3.04;100.00
11523;BME280;40093;43.224;27.910;2023-02-01T04:56:14;100472.16;;;3.06;100.00
11523;BME280;40093;43.224;27.910;2023-02-01T04:58:41;100478.72;;;3.05;100.00
11523;BME280;40093;43.224;27.910;2023-02-01T05:01:09;100494.72;;;2.98;100.00
11523;BME280;40093;43.224;27.910;2023-02-01T05:03:36;100491.91;;;2.86;100.00
11523;BME280;40093;43.224;27.910;2023-02-01T05:06:03;100463.19;;;2.68;100.00
11523;BME280;40093;43.224;27.910;2023-02-01T05:08:31;100504.56;;;2.73;100.00
11523;BME280;40093;43.224;27.910;2023-02-01T05:10:58;100493.06;;;2.68;100.00
11523;BME280;40093;43.224;27.910;2023-02-01T05:13:27;100473.75;;;2.61;100.00
11523;BME280;40093;43.224;27.910;2023-02-01T05:16:13;100505.53;;;2.77;100.00
11523;BME280;40093;43.224;27.910;2023-02-01T05:18:40;100515.41;;;2.73;100.00
11523;BME280;40093;43.224;27.910;2023-02-01T05:21:13;100536.69;;;2.71;100.00
11523;BME280;40093;43.224;27.910;2023-02-01T05:23:42;100504.91;;;2.63;100.00
11523;BME280;40093;43.224;27.910;2023-02-01T05:26:24;100511.28;;;2.67;100.00
11523;BME280;40093;43.224;27.910;2023-02-01T05:28:51;100502.03;;;2.60;100.00
11523;BME280;40093;43.224;27.910;2023-02-01T05:31:20;100531.56;;;2.70;100.00
11523;BME280;40093;43.224;27.910;2023-02-01T05:33:50;100514.00;;;2.59;100.00
11523;BME280;40093;43.224;27.910;2023-02-01T05:36:17;100528.91;;;2.53;100.00
11523;BME280;40093;43.224;27.910;2023-02-01T05:38:44;100529.81;;;2.65;100.00
11523;BME280;40093;43.224;27.910;2023-02-01T05:41:11;100536.41;;;2.47;100.00
11523;BME280;40093;43.224;27.910;2023-02-01T05:43:40;100519.31;;;2.38;100.00
11523;BME280;40093;43.224;27.910;2023-02-01T05:46:07;100515.97;;;2.33;100.00
11523;BME280;40093;43.224;27.910;2023-02-01T05:48:37;100487.25;;;2.07;100.00
11523;BME280;40093;43.224;27.910;2023-02-01T05:51:04;100545.50;;;2.68;100.00
11523;BME280;40093;43.224;27.910;2023-02-01T05:53:32;100551.41;;;2.62;100.00
11523;BME280;40093;43.224;27.910;2023-02-01T05:55:59;100523.47;;;2.53;100.00
11523;BME280;40093;43.224;27.910;2023-02-01T05:58:26;100550.59;;;2.70;100.00
11523;BME280;40093;43.224;27.910;2023-02-01T06:00:53;100545.00;;;2.75;100.00
11523;BME280;40093;43.224;27.910;2023-02-01T06:03:20;100553.63;;;2.77;100.00
11523;BME280;40093;43.224;27.910;2023-02-01T06:05:50;100547.34;;;2.93;100.00
11523;BME280;40093;43.224;27.910;2023-02-01T06:08:17;100547.84;;;2.87;100.00
11523;BME280;40093;43.224;27.910;2023-02-01T06:10:44;100561.94;;;2.80;100.00
11523;BME280;40093;43.224;27.910;2023-02-01T06:13:11;100531.56;;;2.70;100.00
11523;BME280;40093;43.224;27.910;2023-02-01T06:15:38;100554.00;;;3.13;100.00
11523;BME280;40093;43.224;27.910;2023-02-01T06:18:06;100554.25;;;3.28;100.00
11523;BME280;40093;43.224;27.910;2023-02-01T06:20:33;100556.47;;;3.35;100.00
11523;BME280;40093;43.224;27.910;2023-02-01T06:23:02;100557.56;;;3.71;100.00
11523;BME280;40093;43.224;27.910;2023-02-01T06:25:30;100559.28;;;4.05;100.00
11523;BME280;40093;43.224;27.910;2023-02-01T06:28:00;100560.69;;;4.31;100.00
11523;BME280;40093;43.224;27.910;2023-02-01T06:30:28;100555.09;;;4.48;100.00
11523;BME280;40093;43.224;27.910;2023-02-01T06:32:55;100565.19;;;4.48;100.00
11523;BME280;40093;43.224;27.910;2023-02-01T06:35:24;100568.94;;;4.23;100.00
11523;BME280;40093;43.224;27.910;2023-02-01T06:37:51;100567.53;;;4.17;100.00
11523;BME280;40093;43.224;27.910;2023-02-01T06:40:21;100558.69;;;4.20;100.00
11523;BME280;40093;43.224;27.910;2023-02-01T06:42:48;100572.25;;;4.28;100.00
11523;BME280;40093;43.224;27.910;2023-02-01T06:45:16;100569.72;;;4.23;100.00
11523;BME280;40093;43.224;27.910;2023-02-01T06:47:42;100539.03;;;3.94;100.00
11523;BME280;40093;43.224;27.910;2023-02-01T06:50:10;100565.16;;;4.15;100.00
11523;BME280;40093;43.224;27.910;2023-02-01T06:52:40;100572.56;;;4.27;100.00
11523;BME280;40093;43.224;27.910;2023-02-01T06:55:10;100576.72;;;4.65;100.00
11523;BME280;40093;43.224;27.910;2023-02-01T06:57:42;100575.63;;;4.98;100.00
11523;BME280;40093;43.224;27.910;2023-02-01T07:00:10;100577.81;;;5.17;100.00
11523;BME280;40093;43.224;27.910;2023-02-01T07:02:37;100579.09;;;5.43;100.00
11523;BME280;40093;43.224;27.910;2023-02-01T07:05:05;100587.53;;;5.62;100.00
11523;BME280;40093;43.224;27.910;2023-02-01T07:07:32;100540.88;;;5.31;100.00
11523;BME280;40093;43.224;27.910;2023-02-01T07:09:59;100590.66;;;5.97;100.00
11523;BME280;40093;43.224;27.910;2023-02-01T07:12:26;100581.47;;;6.17;100.00
11523;BME280;40093;43.224;27.910;2023-02-01T07:14:54;100581.97;;;6.07;100.00
11523;BME280;40093;43.224;27.910;2023-02-01T07:17:21;100579.34;;;6.10;100.00
11523;BME280;40093;43.224;27.910;2023-02-01T07:19:50;100585.50;;;6.07;100.00
11523;BME280;40093;43.224;27.910;2023-02-01T07:22:18;100552.28;;;5.93;100.00
11523;BME280;40093;43.224;27.910;2023-02-01T07:24:46;100591.16;;;6.26;100.00
11523;BME280;40093;43.224;27.910;2023-02-01T07:27:13;100589.00;;;6.32;99.13
11523;BME280;40093;43.224;27.910;2023-02-01T07:29:40;100590.69;;;6.36;98.28
11523;BME280;40093;43.224;27.910;2023-02-01T07:32:09;100587.63;;;6.26;97.64
11523;BME280;40093;43.224;27.910;2023-02-01T07:34:35;100583.31;;;6.25;96.77
11523;BME280;40093;43.224;27.910;2023-02-01T07:37:02;100577.97;;;6.16;95.90
11523;BME280;40093;43.224;27.910;2023-02-01T07:39:29;100581.44;;;6.41;94.58
11523;BME280;40093;43.224;27.910;2023-02-01T07:41:57;100580.59;;;6.52;94.14
11523;BME280;40093;43.224;27.910;2023-02-01T07:44:24;100594.22;;;6.64;92.88
11523;BME280;40093;43.224;27.910;2023-02-01T07:46:51;100581.38;;;6.25;94.09
11523;BME280;40093;43.224;27.910;2023-02-01T07:49:19;100593.97;;;6.42;93.56
11523;BME280;40093;43.224;27.910;2023-02-01T07:51:46;100591.25;;;6.69;93.20
11523;BME280;40093;43.224;27.910;2023-02-01T07:54:13;100597.63;;;6.73;91.24
11523;BME280;40093;43.224;27.910;2023-02-01T07:56:40;100597.66;;;6.61;91.78
11523;BME280;40093;43.224;27.910;2023-02-01T07:59:07;100591.75;;;6.59;92.31
11523;BME280;40093;43.224;27.910;2023-02-01T08:01:34;100601.44;;;6.84;92.32
11523;BME280;40093;43.224;27.910;2023-02-01T08:04:01;100595.75;;;6.89;90.97
11523;BME280;40093;43.224;27.910;2023-02-01T08:06:31;100590.91;;;6.98;90.79
11523;BME280;40093;43.224;27.910;2023-02-01T08:08:59;100594.03;;;7.12;90.72
11523;BME280;40093;43.224;27.910;2023-02-01T08:11:28;100581.06;;;7.09;87.23
11523;BME280;40093;43.224;27.910;2023-02-01T08:13:55;100591.03;;;7.17;87.91
11523;BME280;40093;43.224;27.910;2023-02-01T08:16:23;100597.66;;;7.16;86.06
11523;BME280;40093;43.224;27.910;2023-02-01T08:18:50;100603.63;;;7.06;85.07
11523;BME280;40093;43.224;27.910;2023-02-01T08:21:19;100600.88;;;7.06;85.15
11523;BME280;40093;43.224;27.910;2023-02-01T08:23:49;100606.19;;;6.99;85.18
11523;BME280;40093;43.224;27.910;2023-02-01T08:26:18;100579.13;;;6.82;85.29
11523;BME280;40093;43.224;27.910;2023-02-01T08:28:47;100606.63;;;7.01;85.21
11523;BME280;40093;43.224;27.910;2023-02-01T08:31:17;100607.78;;;7.00;84.96
11523;BME280;40093;43.224;27.910;2023-02-01T08:33:50;100615.50;;;7.26;84.92
11523;BME280;40093;43.224;27.910;2023-02-01T08:36:18;100612.69;;;7.37;85.05
11523;BME280;40093;43.224;27.910;2023-02-01T08:38:46;100607.59;;;7.67;84.28
11523;BME280;40093;43.224;27.910;2023-02-01T08:41:16;100618.34;;;7.60;82.29
11523;BME280;40093;43.224;27.910;2023-02-01T08:43:44;100614.72;;;7.56;81.03
11523;BME280;40093;43.224;27.910;2023-02-01T08:46:13;100613.81;;;7.21;82.98
11523;BME280;40093;43.224;27.910;2023-02-01T08:48:40;100598.88;;;7.19;82.72
11523;BME280;40093;43.224;27.910;2023-02-01T08:51:09;100605.81;;;7.59;81.62
11523;BME280;40093;43.224;27.910;2023-02-01T08:53:36;100609.88;;;7.65;81.46
11523;BME280;40093;43.224;27.910;2023-02-01T08:56:05;100617.19;;;7.30;82.79
11523;BME280;40093;43.224;27.910;2023-02-01T08:58:34;100625.38;;;6.87;85.10
11523;BME280;40093;43.224;27.910;2023-02-01T09:01:03;100621.91;;;6.75;87.32
11523;BME280;40093;43.224;27.910;2023-02-01T09:03:30;100590.56;;;6.72;86.97
11523;BME280;40093;43.224;27.910;2023-02-01T09:06:00;100616.69;;;7.13;86.37
11523;BME280;40093;43.224;27.910;2023-02-01T09:08:27;100612.84;;;7.14;86.69
11523;BME280;40093;43.224;27.910;2023-02-01T09:10:58;100607.16;;;7.65;85.01
11523;BME280;40093;43.224;27.910;2023-02-01T09:13:28;100613.03;;;7.98;81.40
11523;BME280;40093;43.224;27.910;2023-02-01T09:15:57;100599.88;;;7.88;79.82
11523;BME280;40093;43.224;27.910;2023-02-01T09:18:25;100597.34;;;7.64;79.66
11523;BME280;40093;43.224;27.910;2023-02-01T09:20:52;100606.16;;;7.42;80.54
11523;BME280;40093;43.224;27.910;2023-02-01T09:23:19;100589.88;;;7.03;82.93
11523;BME280;40093;43.224;27.910;2023-02-01T09:25:47;100589.94;;;7.06;82.94
11523;BME280;40093;43.224;27.910;2023-02-01T09:28:16;100594.72;;;7.09;82.87
11523;BME280;40093;43.224;27.910;2023-02-01T09:30:45;100584.09;;;7.50;81.99
11523;BME280;40093;43.224;27.910;2023-02-01T09:33:14;100580.09;;;7.63;79.82
11523;BME280;40093;43.224;27.910;2023-02-01T09:35:42;100579.75;;;7.65;78.70
11523;BME280;40093;43.224;27.910;2023-02-01T09:38:10;100579.75;;;7.80;78.60
11523;BME280;40093;43.224;27.910;2023-02-01T09:40:42;100570.03;;;7.83;78.23
11523;BME280;40093;43.224;27.910;2023-02-01T09:43:23;100574.25;;;7.96;76.77
11523;BME280;40093;43.224;27.910;2023-02-01T09:45:59;100578.63;;;8.16;74.41
11523;BME280;40093;43.224;27.910;2023-02-01T09:48:32;100551.06;;;8.09;73.35
11523;BME280;40093;43.224;27.910;2023-02-01T09:51:04;100572.84;;;8.36;72.83
11523;BME280;40093;43.224;27.910;2023-02-01T09:53:37;100559.19;;;8.21;73.71
11523;BME280;40093;43.224;27.910;2023-02-01T09:56:11;100540.50;;;8.26;73.04
11523;BME280;40093;43.224;27.910;2023-02-01T09:58:47;100555.41;;;8.63;72.21
11523;BME280;40093;43.224;27.910;2023-02-01T10:01:21;100563.25;;;8.65;71.50
11523;BME280;40093;43.224;27.910;2023-02-01T10:03:53;100554.97;;;8.42;72.77
11523;BME280;40093;43.224;27.910;2023-02-01T10:06:39;100554.72;;;8.51;71.73
11523;BME280;40093;43.224;27.910;2023-02-01T10:09:20;100547.59;;;8.46;72.05
11523;BME280;40093;43.224;27.910;2023-02-01T10:12:22;100541.88;;;8.55;70.83
11523;BME280;40093;43.224;27.910;2023-02-01T10:15:02;100542.84;;;8.62;67.62
11523;BME280;40093;43.224;27.910;2023-02-01T10:17:50;100515.34;;;8.40;68.29
11523;BME280;40093;43.224;27.910;2023-02-01T10:20:24;100522.53;;;8.67;68.67
11523;BME280;40093;43.224;27.910;2023-02-01T10:23:02;100489.31;;;8.72;68.18
11523;BME280;40093;43.224;27.910;2023-02-01T10:25:36;100514.28;;;8.86;68.85
11523;BME280;40093;43.224;27.910;2023-02-01T10:28:11;100507.22;;;9.07;68.54
11523;BME280;40093;43.224;27.910;2023-02-01T10:30:44;100508.44;;;9.10;67.73
11523;BME280;40093;43.224;27.910;2023-02-01T10:33:25;100519.16;;;8.96;67.49
11523;BME280;40093;43.224;27.910;2023-02-01T10:36:01;100506.59;;;8.95;67.52
11523;BME280;40093;43.224;27.910;2023-02-01T10:38:30;100498.94;;;9.04;67.84
11523;BME280;40093;43.224;27.910;2023-02-01T10:41:02;100505.41;;;9.15;67.32
11523;BME280;40093;43.224;27.910;2023-02-01T10:43:30;100494.91;;;9.20;66.84
11523;BME280;40093;43.224;27.910;2023-02-01T10:45:59;100502.91;;;9.06;66.56
11523;BME280;40093;43.224;27.910;2023-02-01T10:48:26;100493.50;;;9.30;65.69
11523;BME280;40093;43.224;27.910;2023-02-01T10:50:59;100492.84;;;9.14;64.90
11523;BME280;40093;43.224;27.910;2023-02-01T10:53:31;100468.13;;;8.50;65.91
11523;BME280;40093;43.224;27.910;2023-02-01T10:56:06;100492.50;;;8.55;67.25
11523;BME280;40093;43.224;27.910;2023-02-01T10:58:33;100493.50;;;8.66;66.63
11523;BME280;40093;43.224;27.910;2023-02-01T11:01:04;100488.59;;;8.56;67.22
11523;BME280;40093;43.224;27.910;2023-02-01T11:03:40;100490.75;;;8.85;66.85
11523;BME280;40093;43.224;27.910;2023-02-01T11:06:25;100492.22;;;9.24;65.80
11523;BME280;40093;43.224;27.910;2023-02-01T11:08:54;100486.78;;;9.27;64.64
11523;BME280;40093;43.224;27.910;2023-02-01T11:11:22;100492.22;;;9.24;64.06
11523;BME280;40093;43.224;27.910;2023-02-01T11:13:55;100479.75;;;9.30;64.32
11523;BME280;40093;43.224;27.910;2023-02-01T11:16:28;100485.03;;;9.16;64.80
11523;BME280;40093;43.224;27.910;2023-02-01T11:18:58;100470.19;;;9.20;65.29
11523;BME280;40093;43.224;27.910;2023-02-01T11:21:26;100478.38;;;9.17;65.46
11523;BME280;40093;43.224;27.910;2023-02-01T11:23:54;100476.53;;;9.24;65.28
11523;BME280;40093;43.224;27.910;2023-02-01T11:26:23;100467.50;;;9.24;65.32
11523;BME280;40093;43.224;27.910;2023-02-01T11:28:53;100469.47;;;9.23;64.02
11523;BME280;40093;43.224;27.910;2023-02-01T11:31:22;100468.41;;;9.09;63.42
11523;BME280;40093;43.224;27.910;2023-02-01T11:33:52;100465.56;;;9.02;62.95
11523;BME280;40093;43.224;27.910;2023-02-01T11:36:23;100467.47;;;8.56;63.45
11523;BME280;40093;43.224;27.910;2023-02-01T11:39:08;100466.13;;;8.47;64.13
11523;BME280;40093;43.224;27.910;2023-02-01T11:41:41;100461.75;;;8.65;63.82
11523;BME280;40093;43.224;27.910;2023-02-01T11:44:21;100460.34;;;8.52;63.41
11523;BME280;40093;43.224;27.910;2023-02-01T11:46:48;100454.03;;;8.51;63.05
11523;BME280;40093;43.224;27.910;2023-02-01T11:49:21;100451.97;;;8.45;63.26
11523;BME280;40093;43.224;27.910;2023-02-01T11:51:57;100438.28;;;8.67;62.84
11523;BME280;40093;43.224;27.910;2023-02-01T11:54:48;100435.78;;;8.81;62.52
11523;BME280;40093;43.224;27.910;2023-02-01T11:57:31;100434.88;;;8.74;62.12
11523;BME280;40093;43.224;27.910;2023-02-01T12:00:17;100438.22;;;8.64;63.26
11523;BME280;40093;43.224;27.910;2023-02-01T12:02:57;100430.00;;;8.64;63.70
11523;BME280;40093;43.224;27.910;2023-02-01T12:05:37;100441.72;;;8.42;65.06
11523;BME280;40093;43.224;27.910;2023-02-01T12:08:25;100439.88;;;8.68;64.16
11523;BME280;40093;43.224;27.910;2023-02-01T12:11:06;100447.13;;;8.57;64.36
11523;BME280;40093;43.224;27.910;2023-02-01T12:13:43;100445.28;;;8.65;64.41
11523;BME280;40093;43.224;27.910;2023-02-01T12:16:21;100443.25;;;8.81;64.31
11523;BME280;40093;43.224;27.910;2023-02-01T12:19:19;100441.84;;;8.68;63.89
11523;BME280;40093;43.224;27.910;2023-02-01T12:22:02;100431.59;;;8.46;64.39
11523;BME280;40093;43.224;27.910;2023-02-01T12:24:51;100429.84;;;8.57;64.32
11523;BME280;40093;43.224;27.910;2023-02-01T12:27:42;100437.94;;;8.69;64.07
11523;BME280;40093;43.224;27.910;2023-02-01T12:33:30;100432.09;;;8.93;64.42
11523;BME280;40093;43.224;27.910;2023-02-01T12:36:10;100433.34;;;8.99;64.49
11523;BME280;40093;43.224;27.910;2023-02-01T12:38:52;100430.47;;;9.14;63.27
11523;BME280;40093;43.224;27.910;2023-02-01T12:41:40;100439.38;;;9.08;64.09
11523;BME280;40093;43.224;27.910;2023-02-01T12:47:00;100423.16;;;9.22;62.65
11523;BME280;40093;43.224;27.910;2023-02-01T12:49:38;100405.81;;;9.18;62.26
11523;BME280;40093;43.224;27.910;2023-02-01T12:52:12;100424.91;;;9.33;60.84
11523;BME280;40093;43.224;27.910;2023-02-01T12:54:45;100420.44;;;9.25;59.99
11523;BME280;40093;43.224;27.910;2023-02-01T12:57:16;100408.78;;;9.06;60.59
11523;BME280;40093;43.224;27.910;2023-02-01T12:59:53;100427.34;;;8.90;61.50
11523;BME280;40093;43.224;27.910;2023-02-01T13:02:31;100424.47;;;8.83;62.01
11523;BME280;40093;43.224;27.910;2023-02-01T13:05:09;100399.41;;;8.62;61.88
11523;BME280;40093;43.224;27.910;2023-02-01T13:07:42;100413.28;;;8.72;61.29
11523;BME280;40093;43.224;27.910;2023-02-01T13:10:15;100416.97;;;8.80;61.25
11523;BME280;40093;43.224;27.910;2023-02-01T13:12:49;100390.91;;;8.70;62.14